Latest Weather Observations for Clare

IDS60801

Issued at 11:05 pm CST Wednesday 23 July 2014 (issued every 30 minutes, with the page automatically refreshed every 10 minutes)

About weather observations | Map of weather stations | Latest weather observations for SA | Other Formats
Station Details ID: 021131 Name: CLARE HIGH SCHOOL Lat: -33.82 Lon: 138.59 Height: 395.0 m
Data from the previous 72 hours. | See also: Recent months at Clare
Date/Time
CST
Temp
°C
App
Temp
°C
Dew
Point
Rel
Hum
%
Delta-T
°C
Wind Press
QNH
hPa
Press
MSL
hPa
Rain
since 9 am
mm
Dir
 
Spd
km/h
Gust
km/h
Spd
kts
Gust
kts
23/11:00pm 10.1 6.9 5.3 72 2.2 N 11 22 6 12 1008.9 - 9.6
23/10:30pm 10.1 5.8 5.3 72 2.2 NNE 17 28 9 15 1009.1 - 9.6
23/10:00pm 9.6 5.4 5.6 76 1.9 NE 17 32 9 17 1009.5 - 9.6
23/09:30pm 9.3 5.5 6.0 80 1.5 NE 15 37 8 20 1010.1 - 9.6
23/09:00pm 9.1 4.6 6.0 81 1.5 NE 19 32 10 17 1010.6 1011.1 9.6
23/08:30pm 8.7 4.7 6.5 86 1.0 NE 17 28 9 15 1011.2 - 9.6
23/08:00pm 8.4 5.2 6.7 89 0.8 NNE 13 20 7 11 1012.3 - 9.0
23/07:30pm 8.2 5.8 6.8 91 0.7 NE 9 13 5 7 1012.1 - 8.2
23/07:00pm 8.1 6.3 7.0 93 0.5 ENE 6 9 3 5 1012.2 - 7.4
23/06:30pm 8.4 6.5 6.9 90 0.7 NNE 6 9 3 5 1012.1 - 6.2
23/06:00pm 9.1 6.2 6.4 83 1.3 NNE 11 15 6 8 1011.9 1012.4 4.6
23/05:30pm 9.4 6.4 5.9 79 1.6 NE 11 17 6 9 1011.7 - 3.8
23/05:00pm 9.8 6.0 6.0 77 1.8 NE 15 28 8 15 1011.6 - 3.4
23/04:30pm 10.7 6.1 5.7 71 2.4 NNE 19 32 10 17 1011.9 - 3.0
23/04:00pm 12.1 7.2 5.3 63 3.2 NNE 20 32 11 17 1011.5 - 2.8
23/03:30pm 12.3 7.6 5.9 65 3.1 NNE 20 32 11 17 1011.5 - 2.8
23/03:00pm 12.1 8.0 6.2 67 2.8 NNE 17 26 9 14 1011.9 1012.4 2.8
23/02:30pm 11.6 7.9 6.5 71 2.5 NNE 15 26 8 14 1012.4 - 2.8
23/02:00pm 11.4 7.3 6.1 70 2.5 NNE 17 28 9 15 1012.6 - 2.8
23/01:30pm 10.9 6.7 5.9 71 2.4 NE 17 28 9 15 1013.0 - 2.8
23/01:00pm 9.7 5.2 6.1 78 1.7 NE 19 32 10 17 1014.0 - 2.8
23/12:30pm 9.0 5.4 6.6 85 1.1 NE 15 22 8 12 1015.0 - 2.8
23/12:00pm 8.9 5.2 6.5 85 1.1 NE 15 24 8 13 1015.9 1016.4 2.2
23/11:30am 8.2 4.9 6.5 89 0.8 NE 13 20 7 11 1016.6 - 1.6
23/11:00am 7.9 5.4 6.4 90 0.7 NE 9 20 5 11 1018.1 - 1.6
23/10:30am 8.1 5.5 6.1 87 0.9 ENE 9 11 5 6 1018.3 - 0.8
23/10:00am 8.5 6.1 5.1 79 1.6 NNE 7 11 4 6 1018.7 - 0.2
23/09:30am 9.4 6.3 3.4 66 2.7 NE 9 13 5 7 1018.5 - 0.0
23/09:00am 9.9 6.7 3.0 62 3.0 NE 9 13 5 7 1018.4 1018.9 0.0
23/08:30am 9.9 6.6 2.5 60 3.2 NNE 9 13 5 7 1018.4 - 0.0
23/08:00am 9.9 6.6 2.3 59 3.3 NNE 9 17 5 9 1018.7 - 0.0
23/07:30am 10.5 7.1 2.1 56 3.6 NNE 9 13 5 7 1018.4 - 0.0
23/07:00am 10.6 7.2 1.7 54 3.8 NNE 9 13 5 7 1018.2 - 0.0
23/06:30am 10.6 6.4 1.7 54 3.8 ENE 13 20 7 11 1018.2 - 0.0
23/06:00am 10.3 7.0 2.2 57 3.5 ENE 9 13 5 7 1018.0 1018.5 0.0
23/05:30am 10.5 7.1 1.9 55 3.7 ENE 9 15 5 8 1018.1 - 0.0
23/05:00am 10.5 7.5 2.1 56 3.6 ENE 7 11 4 6 1018.1 - 0.0
23/04:30am 10.2 7.2 1.8 56 3.6 ENE 7 11 4 6 1018.4 - 0.0
23/04:00am 10.0 7.0 1.9 57 3.5 ENE 7 11 4 6 1018.7 - 0.0
23/03:30am 10.0 6.9 1.6 56 3.6 ENE 7 11 4 6 1018.9 - 0.0
23/03:00am 10.0 7.0 1.9 57 3.5 ENE 7 11 4 6 1019.1 1019.7 0.0
23/02:30am 9.6 6.6 2.2 60 3.2 ENE 7 11 4 6 1019.3 - 0.0
23/02:00am 9.6 6.7 2.5 61 3.1 E 7 9 4 5 1019.6 - 0.0
23/01:30am 9.6 6.7 2.5 61 3.1 E 7 13 4 7 1020.0 - 0.0
23/01:00am 9.8 6.5 2.4 60 3.2 ENE 9 15 5 8 1019.9 - 0.0
23/12:30am 10.0 6.7 2.4 59 3.3 ENE 9 15 5 8 1020.1 - 0.0
23/12:00am 10.2 6.9 2.3 58 3.4 ENE 9 11 5 6 1020.6 1021.1 0.0
 
Date/Time
CST
Temp
°C
App
Temp
°C
Dew
Point
Rel
Hum
%
Delta-T
°C
Wind Press
QNH
hPa
Press
MSL
hPa
Rain
since 9 am
mm
Dir
 
Spd
km/h
Gust
km/h
Spd
kts
Gust
kts
22/11:30pm 9.5 6.8 2.6 62 3.0 E 6 9 3 5 1021.1 - 0.0
22/11:00pm 9.3 6.6 2.4 62 3.0 NNE 6 9 3 5 1021.2 - 0.0
22/10:30pm 9.8 6.5 2.2 59 3.3 ENE 9 13 5 7 1021.1 - 0.0
22/10:00pm 10.4 7.0 1.8 55 3.7 ENE 9 15 5 8 1021.1 - 0.0
22/09:30pm 10.1 6.7 2.0 57 3.5 E 9 15 5 8 1021.1 - 0.0
22/09:00pm 10.6 6.8 1.9 55 3.8 E 11 17 6 9 1021.1 1021.7 0.0
22/08:30pm 10.1 7.2 2.5 59 3.3 E 7 13 4 7 1021.2 - 0.0
22/08:00pm 10.2 7.3 2.8 60 3.3 E 7 13 4 7 1021.2 - 0.0
22/07:30pm 10.5 7.4 3.5 62 3.1 E 9 15 5 8 1021.2 - 0.0
22/07:00pm 10.4 7.8 4.1 65 2.9 E 7 11 4 6 1021.3 - 0.0
22/06:30pm 11.0 8.5 4.7 65 2.9 E 7 9 4 5 1021.3 - 0.0
22/06:00pm 11.7 9.2 4.9 63 3.2 E 7 11 4 6 1021.1 1021.7 0.0
22/05:30pm 12.4 10.5 6.7 68 2.8 E 6 9 3 5 1021.0 - 0.0
22/05:00pm 14.5 12.3 5.3 54 4.4 NNE 6 9 3 5 1020.9 - 0.0
22/04:30pm 15.5 12.6 4.5 48 5.2 NNE 9 13 5 7 1020.7 - 0.0
22/04:00pm 15.8 12.7 5.4 50 5.1 N 11 17 6 9 1020.7 - 0.0
22/03:30pm 16.5 13.2 6.6 52 5.0 N 13 17 7 9 1020.8 - 0.0
22/03:00pm 16.5 13.0 5.5 48 5.4 N 13 20 7 11 1020.7 1021.2 0.0
22/02:30pm 16.0 13.1 4.4 46 5.5 N 9 15 5 8 1021.0 - 0.0
22/02:00pm 16.0 12.7 6.4 53 4.8 NNW 13 17 7 9 1021.5 - 0.0
22/01:30pm 16.1 13.4 5.4 49 5.2 N 9 15 5 8 1021.7 - 0.0
22/01:00pm 15.8 12.6 2.9 42 6.0 N 9 13 5 7 1021.9 - 0.0
22/12:30pm 15.3 12.2 3.5 45 5.5 NNE 9 13 5 7 1022.4 - 0.0
22/12:00pm 14.5 11.1 3.9 49 4.9 NNE 11 15 6 8 1022.8 1023.4 0.0
22/11:30am 14.1 10.5 3.0 47 5.1 NNE 11 17 6 9 1023.1 - 0.0
22/11:00am 13.9 10.8 3.4 49 4.8 N 9 15 5 8 1023.5 - 0.0
22/10:30am 13.3 10.6 5.5 59 3.7 N 9 13 5 7 1024.0 - 0.0
22/10:00am 12.0 9.6 4.2 59 3.6 ENE 6 9 3 5 1024.1 - 0.0
22/09:30am 10.5 9.3 4.4 66 2.8 CALM 0 0 0 0 1024.2 - 0.0
22/09:00am 8.0 6.6 3.7 74 1.9 CALM 0 0 0 0 1024.2 1024.8 0.0
22/08:30am 4.8 3.5 4.1 95 0.3 CALM 0 0 0 0 1023.9 - 0.0
22/08:00am 1.8 0.1 1.8 100 0.0 CALM 0 0 0 0 1023.8 - 0.0
22/07:30am 0.3 -1.7 0.2 99 0.0 CALM 0 0 0 0 1023.6 - 0.0
22/07:00am 0.4 -1.6 0.1 98 0.1 CALM 0 0 0 0 1023.3 - 0.0
22/06:30am 0.5 -1.4 0.4 99 0.0 CALM 0 0 0 0 1022.9 - 0.0
22/06:00am 0.7 -1.2 0.6 99 0.0 CALM 0 0 0 0 1022.5 1023.1 0.0
22/05:30am 0.8 -1.1 0.5 98 0.1 CALM 0 0 0 0 1022.3 - 0.0
22/05:00am 1.0 -0.9 0.7 98 0.1 CALM 0 0 0 0 1022.3 - 0.0
22/04:30am 0.9 -1.0 0.6 98 0.1 CALM 0 0 0 0 1022.3 - 0.0
22/04:00am 0.8 -1.1 0.4 97 0.2 CALM 0 0 0 0 1022.1 - 0.0
22/03:30am 1.1 -0.8 0.7 97 0.2 CALM 0 0 0 0 1022.3 - 0.0
22/03:00am 1.3 -0.5 0.9 97 0.2 CALM 0 0 0 0 1022.3 1022.9 0.0
22/02:30am 1.7 -0.1 1.1 96 0.2 CALM 0 0 0 0 1022.2 - 0.0
22/02:00am 1.9 0.1 1.3 96 0.2 CALM 0 0 0 0 1022.3 - 0.0
22/01:30am 2.2 0.4 1.5 95 0.3 CALM 0 0 0 0 1022.4 - 0.0
22/01:00am 2.4 0.7 1.7 95 0.3 CALM 0 0 0 0 1022.5 - 0.0
22/12:30am 2.8 1.1 1.8 93 0.4 CALM 0 0 0 0 1022.7 - 0.0
22/12:00am 3.3 1.7 2.4 94 0.4 CALM 0 0 0 0 1022.7 1023.3 0.0
 
Date/Time
CST
Temp
°C
App
Temp
°C
Dew
Point
Rel
Hum
%
Delta-T
°C
Wind Press
QNH
hPa
Press
MSL
hPa
Rain
since 9 am
mm
Dir
 
Spd
km/h
Gust
km/h
Spd
kts
Gust
kts
21/11:30pm 3.5 1.8 2.0 90 0.6 CALM 0 0 0 0 1022.8 - 0.0
21/11:00pm 4.1 1.8 2.9 92 0.5 E 4 7 2 4 1022.7 - 0.0
21/10:30pm 3.9 2.0 3.0 94 0.4 E 2 6 1 3 1022.7 - 0.0
21/10:00pm 3.8 1.1 2.9 94 0.4 E 6 11 3 6 1022.7 - 0.0
21/09:30pm 3.7 2.2 3.0 95 0.3 CALM 0 0 0 0 1022.8 - 0.0
21/09:00pm 3.8 2.3 2.9 94 0.4 CALM 0 0 0 0 1022.6 1023.2 0.0
21/08:30pm 4.6 3.2 3.6 93 0.4 CALM 0 0 0 0 1022.5 - 0.0
21/08:00pm 5.2 3.8 3.7 90 0.6 CALM 0 0 0 0 1022.2 - 0.0
21/07:30pm 6.0 4.7 4.0 87 0.9 CALM 0 0 0 0 1022.0 - 0.0
21/07:00pm 6.9 5.7 4.6 85 1.0 CALM 0 0 0 0 1021.8 - 0.0
21/06:30pm 8.2 7.0 4.8 79 1.5 CALM 0 0 0 0 1021.6 - 0.0
21/06:00pm 9.0 7.9 5.2 77 1.7 CALM 0 0 0 0 1021.4 1022.0 0.0
21/05:30pm 10.3 9.2 5.3 71 2.3 CALM 0 0 0 0 1021.3 - 0.0
21/05:00pm 11.2 10.1 4.9 65 2.9 CALM 0 0 0 0 1021.1 - 0.0
21/04:30pm 11.8 9.7 4.1 59 3.5 N 4 9 2 5 1020.9 - 0.0
21/04:00pm 13.1 10.4 3.7 53 4.3 N 7 9 4 5 1020.8 - 0.0
21/03:30pm 13.0 10.5 3.7 53 4.3 NNW 6 11 3 6 1020.7 - 0.0
21/03:00pm 12.9 10.2 3.6 53 4.3 NNW 7 9 4 5 1020.7 1021.2 0.0
21/02:30pm 13.1 9.8 2.4 48 4.8 NW 9 13 5 7 1020.8 - 0.0
21/02:00pm 12.4 9.2 3.1 53 4.2 NW 9 11 5 6 1020.8 - 0.0
21/01:30pm 12.6 9.8 3.3 53 4.2 NNW 7 13 4 7 1021.0 - 0.0
21/01:00pm 12.4 9.6 3.4 54 4.1 NNW 7 15 4 8 1021.4 - 0.0
21/12:30pm 12.3 9.8 4.5 59 3.6 N 7 11 4 6 1021.7 - 0.0
21/12:00pm 12.6 9.5 3.5 54 4.1 N 9 13 5 7 1021.9 1022.5 0.0
21/11:30am 13.0 9.9 5.4 60 3.6 N 11 17 6 9 1022.4 - 0.0
21/11:00am 12.2 9.5 5.4 63 3.2 N 9 15 5 8 1022.6 - 0.0
21/10:30am 11.7 8.5 4.9 63 3.2 NNW 11 17 6 9 1022.8 - 0.0
21/10:00am 11.0 7.6 4.0 62 3.2 N 11 17 6 9 1022.9 - 0.0
21/09:30am 9.3 6.6 3.5 67 2.6 NNE 7 13 4 7 1022.7 - 0.0
21/09:00am 7.9 5.3 3.4 73 2.0 NE 6 9 3 5 1022.7 1023.3 0.0
21/08:30am 8.0 5.5 3.8 75 1.9 ENE 6 9 3 5 1022.4 - 0.0
21/08:00am 7.1 4.3 3.2 76 1.7 ENE 7 9 4 5 1022.5 - 0.0
21/07:30am 6.3 4.0 2.9 79 1.4 NE 4 9 2 5 1022.3 - 0.0
21/07:00am 6.5 3.6 2.8 77 1.6 NE 7 11 4 6 1022.3 - 0.0
21/06:30am 6.7 3.8 2.8 76 1.7 NNE 7 11 4 6 1022.1 - 0.0
21/06:00am 6.7 3.8 2.8 76 1.7 NE 7 11 4 6 1021.9 1022.5 0.0
21/05:30am 6.8 4.0 3.1 77 1.6 NE 7 11 4 6 1021.9 - 0.0
21/05:00am 6.8 4.0 3.4 79 1.5 NNE 7 11 4 6 1021.8 - 0.0
21/04:30am 5.9 3.3 3.2 83 1.2 NE 6 7 3 4 1021.9 - 0.0
21/04:00am 4.8 3.4 3.5 91 0.6 CALM 0 0 0 0 1021.9 - 0.0
21/03:30am 5.2 3.0 3.2 87 0.8 ENE 4 7 2 4 1021.9 - 0.0
21/03:00am 5.8 3.2 3.3 84 1.1 NE 6 7 3 4 1022.0 1022.6 0.0
21/02:30am 5.6 3.4 3.3 85 1.0 NE 4 7 2 4 1022.0 - 0.0
21/02:00am 5.5 3.7 3.5 87 0.9 ENE 2 11 1 6 1022.1 - 0.0
21/01:30am 5.4 3.6 3.6 88 0.8 ENE 2 7 1 4 1022.3 - 0.0
21/01:00am 6.3 3.7 4.1 86 1.0 ENE 7 11 4 6 1022.5 - 0.0
21/12:30am 6.5 3.5 4.3 86 1.0 NE 9 13 5 7 1022.8 - 0.0
21/12:00am 7.1 3.4 4.6 84 1.1 ENE 13 20 7 11 1022.9 1023.5 0.0
 
Date/Time
CST
Temp
°C
App
Temp
°C
Dew
Point
Rel
Hum
%
Delta-T
°C
Wind Press
QNH
hPa
Press
MSL
hPa
Rain
since 9 am
mm
Dir
 
Spd
km/h
Gust
km/h
Spd
kts
Gust
kts
20/11:30pm 7.3 3.7 4.8 84 1.1 ENE 13 20 7 11 1022.9 - 0.0

Other Formats:

Comma delimited format used in spreadsheet applications
http://www.bom.gov.au/fwo/IDS60801/IDS60801.95667.axf

JavaScript Object Notation format (JSON) in row-major order
http://www.bom.gov.au/fwo/IDS60801/IDS60801.95667.json